createdAt,value
2022-07-26T00:00:16.886Z,19.65
2022-07-26T00:02:48.397Z,19.66
2022-07-26T00:05:18.266Z,19.64
2022-07-26T00:07:46.942Z,19.57
2022-07-26T00:10:14.708Z,19.52
2022-07-26T00:12:42.507Z,19.46
2022-07-26T00:15:11.256Z,19.50
2022-07-26T00:17:39.001Z,19.54
2022-07-26T00:20:07.054Z,19.41
2022-07-26T00:22:34.385Z,19.41
2022-07-26T00:25:07.764Z,19.44
2022-07-26T00:27:38.722Z,19.42
2022-07-26T00:30:07.114Z,19.35
2022-07-26T00:32:34.319Z,19.40
2022-07-26T00:35:01.628Z,19.31
2022-07-26T00:37:28.747Z,19.31
2022-07-26T00:39:56.436Z,19.31
2022-07-26T00:42:23.953Z,19.30
2022-07-26T00:44:51.694Z,19.30
2022-07-26T00:47:18.957Z,19.31
2022-07-26T00:49:47.514Z,19.31
2022-07-26T00:52:14.660Z,19.26
2022-07-26T00:54:45.678Z,19.22
2022-07-26T00:57:14.323Z,19.28
2022-07-26T00:59:44.921Z,19.29
2022-07-26T01:02:13.192Z,19.30
2022-07-26T01:04:44.776Z,19.34
2022-07-26T01:07:14.782Z,19.36
2022-07-26T01:09:43.299Z,19.41
2022-07-26T01:12:10.573Z,19.35
2022-07-26T01:14:38.359Z,19.38
2022-07-26T01:17:05.482Z,19.33
2022-07-26T01:19:33.018Z,19.37
2022-07-26T01:22:01.063Z,19.40
2022-07-26T01:24:27.974Z,19.37
2022-07-26T01:26:58.177Z,19.33
2022-07-26T01:29:36.202Z,19.39
2022-07-26T01:32:05.437Z,19.33
2022-07-26T01:34:33.002Z,19.30
2022-07-26T01:37:02.168Z,19.30
2022-07-26T01:39:29.698Z,19.27
2022-07-26T01:41:56.898Z,19.24
2022-07-26T01:44:24.357Z,19.31
2022-07-26T01:46:51.843Z,19.27
2022-07-26T01:49:19.114Z,19.17
2022-07-26T01:51:46.755Z,19.13
2022-07-26T01:54:13.721Z,19.09
2022-07-26T01:56:43.313Z,19.09
2022-07-26T01:59:10.437Z,19.14
2022-07-26T02:01:39.977Z,19.13
2022-07-26T02:04:09.371Z,19.16
2022-07-26T02:06:37.551Z,19.18
2022-07-26T02:09:07.493Z,19.13
2022-07-26T02:11:34.968Z,19.15
2022-07-26T02:14:03.085Z,19.12
2022-07-26T02:16:30.016Z,19.08
2022-07-26T02:18:57.977Z,19.03
2022-07-26T02:21:25.214Z,19.07
2022-07-26T02:23:54.460Z,19.02
2022-07-26T02:26:22.178Z,19.05
2022-07-26T02:28:49.918Z,19.01
2022-07-26T02:31:17.605Z,19.08
2022-07-26T02:33:44.355Z,19.11
2022-07-26T02:36:11.622Z,19.12
2022-07-26T02:38:38.556Z,19.16
2022-07-26T02:41:06.268Z,19.10
2022-07-26T02:43:33.542Z,19.13
2022-07-26T02:46:02.197Z,19.05
2022-07-26T02:48:32.524Z,19.08
2022-07-26T02:50:59.688Z,19.07
2022-07-26T02:53:27.400Z,18.96
2022-07-26T02:55:54.446Z,18.93
2022-07-26T02:58:24.994Z,18.96
2022-07-26T03:00:52.416Z,19.09
2022-07-26T03:03:19.298Z,18.90
2022-07-26T03:05:46.655Z,18.87
2022-07-26T03:08:13.725Z,18.92
2022-07-26T03:10:40.695Z,18.88
2022-07-26T03:13:08.004Z,18.85
2022-07-26T03:15:35.036Z,18.92
2022-07-26T03:18:02.636Z,18.92
2022-07-26T03:20:29.759Z,19.03
2022-07-26T03:22:57.140Z,18.89
2022-07-26T03:25:24.020Z,18.93
2022-07-26T03:27:51.156Z,18.87
2022-07-26T03:30:24.786Z,18.91
2022-07-26T03:32:54.309Z,18.84
2022-07-26T03:35:21.617Z,18.93
2022-07-26T03:37:48.779Z,18.77
2022-07-26T03:40:17.134Z,18.64
2022-07-26T03:42:45.908Z,18.60
2022-07-26T03:45:14.643Z,18.58
2022-07-26T03:47:42.509Z,18.65
2022-07-26T03:50:11.134Z,18.67
2022-07-26T03:52:38.382Z,18.65
2022-07-26T03:55:27.044Z,18.68
2022-07-26T03:57:54.148Z,18.68
2022-07-26T04:00:21.475Z,18.74
2022-07-26T04:02:48.847Z,18.69
2022-07-26T04:05:15.923Z,18.73
2022-07-26T04:07:53.206Z,18.69
2022-07-26T04:10:22.208Z,18.65
2022-07-26T04:12:50.354Z,18.57
2022-07-26T04:15:19.119Z,18.51
2022-07-26T04:17:48.248Z,18.40
2022-07-26T04:20:16.053Z,18.36
2022-07-26T04:22:43.760Z,18.34
2022-07-26T04:25:11.243Z,18.25
2022-07-26T04:27:38.762Z,18.26
2022-07-26T04:30:12.336Z,18.28
2022-07-26T04:32:42.293Z,18.19
2022-07-26T04:35:09.815Z,18.25
2022-07-26T04:37:45.140Z,18.21
2022-07-26T04:40:16.916Z,18.23
2022-07-26T04:42:43.708Z,18.24
2022-07-26T04:45:12.711Z,18.23
2022-07-26T04:47:44.429Z,18.25
2022-07-26T04:50:12.511Z,18.20
2022-07-26T04:52:40.424Z,18.21
2022-07-26T04:55:09.155Z,18.26
2022-07-26T04:57:36.497Z,18.24
2022-07-26T05:00:21.247Z,18.23
2022-07-26T05:02:55.069Z,18.20
2022-07-26T05:05:23.138Z,18.17
2022-07-26T05:07:53.230Z,18.18
2022-07-26T05:10:22.656Z,18.27
2022-07-26T05:12:50.298Z,18.21
2022-07-26T05:15:17.466Z,18.30
2022-07-26T05:17:44.839Z,18.37
2022-07-26T05:20:15.376Z,18.31
2022-07-26T05:22:42.689Z,18.30
2022-07-26T05:25:10.553Z,18.40
2022-07-26T05:27:39.056Z,18.43
2022-07-26T05:30:06.527Z,18.37
2022-07-26T05:32:33.430Z,18.48
2022-07-26T05:35:00.961Z,18.53
2022-07-26T05:37:27.987Z,18.54
2022-07-26T05:39:55.264Z,18.66
2022-07-26T05:42:22.505Z,18.60
2022-07-26T05:44:49.396Z,18.66
2022-07-26T05:47:17.633Z,18.69
2022-07-26T05:49:44.840Z,18.79
2022-07-26T05:52:13.480Z,18.80
2022-07-26T05:54:40.412Z,18.75
2022-07-26T05:57:07.873Z,18.63
2022-07-26T05:59:35.049Z,18.70
2022-07-26T06:02:01.986Z,18.69
2022-07-26T06:04:28.996Z,18.77
2022-07-26T06:06:56.313Z,18.89
2022-07-26T06:09:27.027Z,18.95
2022-07-26T06:11:54.441Z,19.00
2022-07-26T06:14:22.653Z,19.04
2022-07-26T06:16:49.890Z,19.07
2022-07-26T06:19:17.792Z,19.02
2022-07-26T06:21:46.088Z,19.06
2022-07-26T06:24:13.985Z,18.96
2022-07-26T06:26:41.055Z,18.95
2022-07-26T06:29:08.374Z,19.02
2022-07-26T06:31:35.967Z,19.02
2022-07-26T06:34:03.330Z,19.12
2022-07-26T06:36:31.333Z,19.01
2022-07-26T06:38:58.998Z,18.96
2022-07-26T06:41:27.053Z,19.08
2022-07-26T06:43:54.060Z,19.02
2022-07-26T06:46:22.262Z,19.08
2022-07-26T06:48:52.842Z,19.13
2022-07-26T06:51:23.968Z,19.22
2022-07-26T06:54:06.981Z,19.19
2022-07-26T06:56:34.096Z,19.20
2022-07-26T06:59:05.062Z,19.22
2022-07-26T07:01:51.344Z,19.20
2022-07-26T07:04:21.115Z,19.21
2022-07-26T07:06:48.399Z,18.98
2022-07-26T07:09:16.958Z,19.15
2022-07-26T07:11:44.476Z,19.30
2022-07-26T07:14:12.276Z,19.32
2022-07-26T07:16:40.077Z,19.38
2022-07-26T07:19:07.198Z,19.43
2022-07-26T07:21:34.036Z,19.51
2022-07-26T07:24:01.989Z,19.56
2022-07-26T07:26:29.262Z,19.65
2022-07-26T07:28:56.762Z,19.83
2022-07-26T07:31:30.632Z,19.92
2022-07-26T07:34:12.516Z,19.86
2022-07-26T07:36:42.033Z,19.91
2022-07-26T07:39:15.362Z,20.01
2022-07-26T07:41:47.758Z,20.00
2022-07-26T07:44:14.695Z,20.11
2022-07-26T07:46:41.685Z,20.28
2022-07-26T07:49:10.971Z,20.35
2022-07-26T07:51:38.420Z,20.58
2022-07-26T07:54:06.303Z,20.76
2022-07-26T07:56:34.567Z,20.86
2022-07-26T07:59:01.580Z,20.97
2022-07-26T08:01:39.875Z,21.22
2022-07-26T08:04:09.526Z,21.35
2022-07-26T08:06:37.202Z,21.33
2022-07-26T08:09:06.413Z,21.36
2022-07-26T08:11:34.213Z,21.53
2022-07-26T08:14:01.731Z,21.56
2022-07-26T08:16:33.758Z,21.53
2022-07-26T08:19:00.892Z,21.65
2022-07-26T08:21:30.290Z,21.74
2022-07-26T08:23:58.185Z,21.49
2022-07-26T08:26:25.384Z,21.50
2022-07-26T08:28:59.720Z,21.35
2022-07-26T08:31:29.167Z,21.21
2022-07-26T08:33:56.813Z,21.17
2022-07-26T08:36:32.182Z,21.10
2022-07-26T08:39:00.085Z,21.43
2022-07-26T08:41:28.797Z,21.59
2022-07-26T08:43:55.591Z,21.70
2022-07-26T08:46:25.953Z,21.86
2022-07-26T08:48:57.433Z,21.85
2022-07-26T08:51:32.311Z,21.90
2022-07-26T08:54:06.118Z,21.83
2022-07-26T08:56:35.786Z,21.61
2022-07-26T08:59:23.227Z,21.53
2022-07-26T09:02:04.353Z,21.52
2022-07-26T09:04:50.660Z,21.58
2022-07-26T09:07:19.049Z,21.68
2022-07-26T09:09:54.894Z,21.96
2022-07-26T09:12:26.922Z,22.08
2022-07-26T09:14:54.801Z,22.15
2022-07-26T09:17:25.534Z,22.25
2022-07-26T09:20:17.307Z,22.29
2022-07-26T09:23:10.040Z,22.18
2022-07-26T09:25:44.616Z,22.28
2022-07-26T09:28:29.801Z,22.38
2022-07-26T09:31:00.118Z,22.35
2022-07-26T09:33:44.347Z,22.60
2022-07-26T09:36:11.497Z,22.70
2022-07-26T09:38:46.277Z,22.71
2022-07-26T09:41:24.666Z,22.67
2022-07-26T09:43:54.207Z,22.66
2022-07-26T09:46:27.989Z,22.65
2022-07-26T09:49:12.249Z,22.74
2022-07-26T09:51:42.657Z,22.84
2022-07-26T09:54:11.660Z,22.92
2022-07-26T09:56:50.180Z,23.02
2022-07-26T09:59:23.047Z,23.06
2022-07-26T10:01:52.835Z,23.10
2022-07-26T10:04:22.461Z,23.25
2022-07-26T10:06:50.581Z,23.08
2022-07-26T10:09:19.284Z,23.20
2022-07-26T10:12:00.902Z,23.30
2022-07-26T10:14:38.797Z,23.44
2022-07-26T10:17:35.179Z,22.37
2022-07-26T10:20:38.270Z,22.23
2022-07-26T10:23:35.059Z,22.03
2022-07-26T10:26:04.369Z,21.64
2022-07-26T10:28:33.764Z,21.33
2022-07-26T10:31:23.489Z,21.35
2022-07-26T10:33:52.265Z,21.28
2022-07-26T10:36:26.551Z,20.88
2022-07-26T10:39:22.636Z,21.29
2022-07-26T10:41:58.636Z,21.28
2022-07-26T10:44:27.997Z,20.99
2022-07-26T10:47:10.199Z,21.18
2022-07-26T10:49:54.411Z,20.68
2022-07-26T10:52:27.590Z,20.76
2022-07-26T10:55:00.225Z,21.00
2022-07-26T10:57:35.711Z,20.99
2022-07-26T11:00:10.448Z,20.82
2022-07-26T11:02:38.056Z,20.88
2022-07-26T11:05:15.588Z,21.06
2022-07-26T11:07:59.197Z,21.17
2022-07-26T11:10:37.849Z,21.21
2022-07-26T11:13:06.464Z,21.19
2022-07-26T11:15:34.539Z,21.18
2022-07-26T11:18:21.382Z,21.04
2022-07-26T11:20:53.110Z,21.32
2022-07-26T11:23:24.514Z,21.30
2022-07-26T11:26:03.078Z,21.35
2022-07-26T11:28:30.402Z,21.45
2022-07-26T11:30:58.905Z,21.53
2022-07-26T11:33:38.914Z,21.44
2022-07-26T11:36:06.418Z,21.49
2022-07-26T11:38:52.199Z,21.90
2022-07-26T11:41:34.587Z,22.13
2022-07-26T11:44:03.976Z,22.19
2022-07-26T11:46:37.740Z,22.31
2022-07-26T11:49:12.733Z,22.41
2022-07-26T11:51:39.864Z,22.81
2022-07-26T11:54:07.002Z,22.62
2022-07-26T11:56:34.271Z,22.41
2022-07-26T11:59:05.743Z,22.01
2022-07-26T12:01:33.767Z,22.33
2022-07-26T12:04:01.669Z,22.38
2022-07-26T12:06:29.062Z,22.59
2022-07-26T12:08:58.438Z,22.81
2022-07-26T12:11:37.950Z,23.00
2022-07-26T12:14:05.330Z,23.03
2022-07-26T12:16:47.612Z,22.86
2022-07-26T12:19:17.214Z,22.87
2022-07-26T12:21:49.129Z,22.67
2022-07-26T12:24:39.419Z,22.58
